sensor_id;sensor_type;location;lat;lon;timestamp;P1;durP1;ratioP1;P2;durP2;ratioP2
64667;SDS011;51077;42.716;23.344;2022-07-17T00:01:27;4.95;;;2.58;;
64667;SDS011;51077;42.716;23.344;2022-07-17T00:03:52;5.13;;;2.10;;
64667;SDS011;51077;42.716;23.344;2022-07-17T00:06:18;3.90;;;2.10;;
64667;SDS011;51077;42.716;23.344;2022-07-17T00:08:43;5.90;;;2.70;;
64667;SDS011;51077;42.716;23.344;2022-07-17T00:11:09;3.40;;;2.23;;
64667;SDS011;51077;42.716;23.344;2022-07-17T00:13:34;5.27;;;2.47;;
64667;SDS011;51077;42.716;23.344;2022-07-17T00:16:00;3.80;;;2.53;;
64667;SDS011;51077;42.716;23.344;2022-07-17T00:18:25;6.27;;;2.07;;
64667;SDS011;51077;42.716;23.344;2022-07-17T00:20:51;4.23;;;2.10;;
64667;SDS011;51077;42.716;23.344;2022-07-17T00:23:16;3.23;;;2.03;;
64667;SDS011;51077;42.716;23.344;2022-07-17T00:25:43;3.80;;;2.17;;
64667;SDS011;51077;42.716;23.344;2022-07-17T00:28:09;3.13;;;1.97;;
64667;SDS011;51077;42.716;23.344;2022-07-17T00:30:34;4.13;;;2.23;;
64667;SDS011;51077;42.716;23.344;2022-07-17T00:33:00;3.93;;;2.27;;
64667;SDS011;51077;42.716;23.344;2022-07-17T00:35:25;4.07;;;2.30;;
64667;SDS011;51077;42.716;23.344;2022-07-17T00:37:51;3.60;;;2.10;;
64667;SDS011;51077;42.716;23.344;2022-07-17T00:40:18;4.70;;;2.27;;
64667;SDS011;51077;42.716;23.344;2022-07-17T00:42:46;3.90;;;2.30;;
64667;SDS011;51077;42.716;23.344;2022-07-17T00:45:11;3.40;;;1.83;;
64667;SDS011;51077;42.716;23.344;2022-07-17T00:47:57;4.03;;;2.10;;
64667;SDS011;51077;42.716;23.344;2022-07-17T00:50:28;5.97;;;2.13;;
64667;SDS011;51077;42.716;23.344;2022-07-17T00:52:56;3.67;;;2.10;;
64667;SDS011;51077;42.716;23.344;2022-07-17T00:55:22;3.23;;;2.03;;
64667;SDS011;51077;42.716;23.344;2022-07-17T00:57:48;6.10;;;2.47;;
64667;SDS011;51077;42.716;23.344;2022-07-17T01:00:16;4.78;;;2.17;;
64667;SDS011;51077;42.716;23.344;2022-07-17T01:02:49;5.73;;;2.40;;
64667;SDS011;51077;42.716;23.344;2022-07-17T01:05:17;3.25;;;2.20;;
64667;SDS011;51077;42.716;23.344;2022-07-17T01:07:44;3.72;;;1.88;;
64667;SDS011;51077;42.716;23.344;2022-07-17T01:10:11;3.80;;;2.20;;
64667;SDS011;51077;42.716;23.344;2022-07-17T01:12:37;4.45;;;2.22;;
64667;SDS011;51077;42.716;23.344;2022-07-17T01:15:05;3.67;;;2.03;;
64667;SDS011;51077;42.716;23.344;2022-07-17T01:17:32;6.28;;;2.25;;
64667;SDS011;51077;42.716;23.344;2022-07-17T01:19:57;3.67;;;2.20;;
64667;SDS011;51077;42.716;23.344;2022-07-17T01:22:22;4.17;;;2.40;;
64667;SDS011;51077;42.716;23.344;2022-07-17T01:24:48;4.00;;;1.93;;
64667;SDS011;51077;42.716;23.344;2022-07-17T01:27:13;4.40;;;2.33;;
64667;SDS011;51077;42.716;23.344;2022-07-17T01:29:40;3.53;;;2.35;;
64667;SDS011;51077;42.716;23.344;2022-07-17T01:32:06;3.33;;;2.20;;
64667;SDS011;51077;42.716;23.344;2022-07-17T01:34:31;6.30;;;2.10;;
64667;SDS011;51077;42.716;23.344;2022-07-17T01:36:57;3.63;;;1.90;;
64667;SDS011;51077;42.716;23.344;2022-07-17T01:39:23;7.35;;;2.42;;
64667;SDS011;51077;42.716;23.344;2022-07-17T01:42:08;3.97;;;2.80;;
64667;SDS011;51077;42.716;23.344;2022-07-17T01:44:34;6.45;;;3.17;;
64667;SDS011;51077;42.716;23.344;2022-07-17T01:46:59;5.07;;;2.57;;
64667;SDS011;51077;42.716;23.344;2022-07-17T01:49:25;4.40;;;2.50;;
64667;SDS011;51077;42.716;23.344;2022-07-17T01:51:50;3.57;;;2.23;;
64667;SDS011;51077;42.716;23.344;2022-07-17T01:54:16;9.90;;;2.10;;
64667;SDS011;51077;42.716;23.344;2022-07-17T01:56:41;4.67;;;2.50;;
64667;SDS011;51077;42.716;23.344;2022-07-17T01:59:07;5.10;;;2.40;;
64667;SDS011;51077;42.716;23.344;2022-07-17T02:01:33;6.40;;;2.60;;
64667;SDS011;51077;42.716;23.344;2022-07-17T02:03:58;3.37;;;1.97;;
64667;SDS011;51077;42.716;23.344;2022-07-17T02:06:23;4.93;;;2.30;;
64667;SDS011;51077;42.716;23.344;2022-07-17T02:08:49;6.93;;;3.27;;
64667;SDS011;51077;42.716;23.344;2022-07-17T02:11:16;3.40;;;2.00;;
64667;SDS011;51077;42.716;23.344;2022-07-17T02:13:42;4.25;;;2.20;;
64667;SDS011;51077;42.716;23.344;2022-07-17T02:16:07;6.30;;;2.43;;
64667;SDS011;51077;42.716;23.344;2022-07-17T02:18:33;4.37;;;2.20;;
64667;SDS011;51077;42.716;23.344;2022-07-17T02:20:58;3.20;;;1.90;;
64667;SDS011;51077;42.716;23.344;2022-07-17T02:23:24;3.03;;;2.10;;
64667;SDS011;51077;42.716;23.344;2022-07-17T02:25:49;3.20;;;1.90;;
64667;SDS011;51077;42.716;23.344;2022-07-17T02:28:14;5.97;;;2.10;;
64667;SDS011;51077;42.716;23.344;2022-07-17T02:30:41;3.63;;;1.93;;
64667;SDS011;51077;42.716;23.344;2022-07-17T02:33:06;6.78;;;1.85;;
64667;SDS011;51077;42.716;23.344;2022-07-17T02:35:32;3.00;;;1.97;;
64667;SDS011;51077;42.716;23.344;2022-07-17T02:37:58;5.28;;;2.03;;
64667;SDS011;51077;42.716;23.344;2022-07-17T02:40:24;4.20;;;2.00;;
64667;SDS011;51077;42.716;23.344;2022-07-17T02:42:49;3.57;;;1.87;;
64667;SDS011;51077;42.716;23.344;2022-07-17T02:45:15;5.60;;;2.17;;
64667;SDS011;51077;42.716;23.344;2022-07-17T02:47:40;3.97;;;2.10;;
64667;SDS011;51077;42.716;23.344;2022-07-17T02:50:07;4.07;;;2.10;;
64667;SDS011;51077;42.716;23.344;2022-07-17T02:52:33;3.97;;;2.10;;
64667;SDS011;51077;42.716;23.344;2022-07-17T02:55:00;3.72;;;2.30;;
64667;SDS011;51077;42.716;23.344;2022-07-17T02:57:26;3.85;;;2.00;;
64667;SDS011;51077;42.716;23.344;2022-07-17T02:59:51;4.33;;;1.97;;
64667;SDS011;51077;42.716;23.344;2022-07-17T03:02:17;5.45;;;2.63;;
64667;SDS011;51077;42.716;23.344;2022-07-17T03:04:43;4.20;;;2.60;;
64667;SDS011;51077;42.716;23.344;2022-07-17T03:07:08;4.13;;;2.13;;
64667;SDS011;51077;42.716;23.344;2022-07-17T03:09:33;5.07;;;1.93;;
64667;SDS011;51077;42.716;23.344;2022-07-17T03:11:59;5.40;;;2.40;;
64667;SDS011;51077;42.716;23.344;2022-07-17T03:14:25;4.83;;;2.30;;
64667;SDS011;51077;42.716;23.344;2022-07-17T03:16:50;4.60;;;2.30;;
64667;SDS011;51077;42.716;23.344;2022-07-17T03:19:16;3.97;;;2.30;;
64667;SDS011;51077;42.716;23.344;2022-07-17T03:21:41;5.50;;;2.57;;
64667;SDS011;51077;42.716;23.344;2022-07-17T03:24:07;5.10;;;2.63;;
64667;SDS011;51077;42.716;23.344;2022-07-17T03:26:32;4.40;;;2.50;;
64667;SDS011;51077;42.716;23.344;2022-07-17T03:28:58;4.93;;;2.43;;
64667;SDS011;51077;42.716;23.344;2022-07-17T03:31:23;7.10;;;2.77;;
64667;SDS011;51077;42.716;23.344;2022-07-17T03:33:48;5.30;;;1.93;;
64667;SDS011;51077;42.716;23.344;2022-07-17T03:36:14;3.33;;;1.90;;
64667;SDS011;51077;42.716;23.344;2022-07-17T03:38:39;4.03;;;1.90;;
64667;SDS011;51077;42.716;23.344;2022-07-17T03:41:05;8.93;;;3.07;;
64667;SDS011;51077;42.716;23.344;2022-07-17T03:43:30;4.77;;;2.40;;
64667;SDS011;51077;42.716;23.344;2022-07-17T03:45:56;5.03;;;2.37;;
64667;SDS011;51077;42.716;23.344;2022-07-17T03:48:21;4.57;;;2.20;;
64667;SDS011;51077;42.716;23.344;2022-07-17T03:50:46;4.93;;;2.80;;
64667;SDS011;51077;42.716;23.344;2022-07-17T03:53:12;3.60;;;2.20;;
64667;SDS011;51077;42.716;23.344;2022-07-17T03:55:37;5.40;;;2.40;;
64667;SDS011;51077;42.716;23.344;2022-07-17T03:58:03;5.23;;;2.60;;
64667;SDS011;51077;42.716;23.344;2022-07-17T04:00:28;4.77;;;2.30;;
64667;SDS011;51077;42.716;23.344;2022-07-17T04:02:54;5.90;;;2.93;;
64667;SDS011;51077;42.716;23.344;2022-07-17T04:05:19;6.67;;;2.70;;
64667;SDS011;51077;42.716;23.344;2022-07-17T04:07:45;6.43;;;2.90;;
64667;SDS011;51077;42.716;23.344;2022-07-17T04:10:11;4.37;;;2.27;;
64667;SDS011;51077;42.716;23.344;2022-07-17T04:12:39;4.72;;;2.40;;
64667;SDS011;51077;42.716;23.344;2022-07-17T04:15:05;3.45;;;2.30;;
64667;SDS011;51077;42.716;23.344;2022-07-17T04:17:32;4.22;;;1.98;;
64667;SDS011;51077;42.716;23.344;2022-07-17T04:19:57;5.00;;;2.43;;
64667;SDS011;51077;42.716;23.344;2022-07-17T04:22:23;4.70;;;2.63;;
64667;SDS011;51077;42.716;23.344;2022-07-17T04:24:49;4.10;;;2.35;;
64667;SDS011;51077;42.716;23.344;2022-07-17T04:27:15;3.60;;;2.40;;
64667;SDS011;51077;42.716;23.344;2022-07-17T04:29:41;4.13;;;1.97;;
64667;SDS011;51077;42.716;23.344;2022-07-17T04:32:06;3.37;;;1.87;;
64667;SDS011;51077;42.716;23.344;2022-07-17T04:34:32;4.30;;;2.40;;
64667;SDS011;51077;42.716;23.344;2022-07-17T04:36:59;5.18;;;2.00;;
64667;SDS011;51077;42.716;23.344;2022-07-17T04:39:25;7.00;;;2.35;;
64667;SDS011;51077;42.716;23.344;2022-07-17T04:41:50;4.23;;;2.30;;
64667;SDS011;51077;42.716;23.344;2022-07-17T04:44:16;5.45;;;2.13;;
64667;SDS011;51077;42.716;23.344;2022-07-17T04:46:42;3.00;;;1.85;;
64667;SDS011;51077;42.716;23.344;2022-07-17T04:49:08;3.93;;;2.33;;
64667;SDS011;51077;42.716;23.344;2022-07-17T04:51:33;3.77;;;2.20;;
64667;SDS011;51077;42.716;23.344;2022-07-17T04:53:59;4.40;;;2.30;;
64667;SDS011;51077;42.716;23.344;2022-07-17T04:56:25;4.77;;;2.30;;
64667;SDS011;51077;42.716;23.344;2022-07-17T04:58:50;4.03;;;2.20;;
64667;SDS011;51077;42.716;23.344;2022-07-17T05:01:16;3.83;;;2.00;;
64667;SDS011;51077;42.716;23.344;2022-07-17T05:03:41;4.10;;;2.30;;
64667;SDS011;51077;42.716;23.344;2022-07-17T05:06:06;3.93;;;2.13;;
64667;SDS011;51077;42.716;23.344;2022-07-17T05:08:33;6.50;;;2.27;;
64667;SDS011;51077;42.716;23.344;2022-07-17T05:10:59;5.65;;;2.70;;
64667;SDS011;51077;42.716;23.344;2022-07-17T05:13:25;5.00;;;2.20;;
64667;SDS011;51077;42.716;23.344;2022-07-17T05:15:50;5.37;;;2.27;;
64667;SDS011;51077;42.716;23.344;2022-07-17T05:18:16;4.97;;;2.20;;
64667;SDS011;51077;42.716;23.344;2022-07-17T05:20:41;3.80;;;2.30;;
64667;SDS011;51077;42.716;23.344;2022-07-17T05:23:06;3.97;;;2.17;;
64667;SDS011;51077;42.716;23.344;2022-07-17T05:25:32;3.27;;;1.87;;
64667;SDS011;51077;42.716;23.344;2022-07-17T05:27:57;3.10;;;1.90;;
64667;SDS011;51077;42.716;23.344;2022-07-17T05:30:23;4.80;;;2.38;;
64667;SDS011;51077;42.716;23.344;2022-07-17T05:32:49;5.13;;;2.00;;
64667;SDS011;51077;42.716;23.344;2022-07-17T05:35:15;4.33;;;1.83;;
64667;SDS011;51077;42.716;23.344;2022-07-17T05:37:40;5.47;;;1.77;;
64667;SDS011;51077;42.716;23.344;2022-07-17T05:40:06;3.40;;;2.00;;
64667;SDS011;51077;42.716;23.344;2022-07-17T05:42:32;5.57;;;2.35;;
64667;SDS011;51077;42.716;23.344;2022-07-17T05:44:57;4.33;;;2.10;;
64667;SDS011;51077;42.716;23.344;2022-07-17T05:47:24;4.32;;;2.10;;
64667;SDS011;51077;42.716;23.344;2022-07-17T05:49:49;4.43;;;1.97;;
64667;SDS011;51077;42.716;23.344;2022-07-17T05:52:15;3.70;;;2.33;;
64667;SDS011;51077;42.716;23.344;2022-07-17T05:54:40;5.00;;;2.47;;
64667;SDS011;51077;42.716;23.344;2022-07-17T05:57:06;5.03;;;2.37;;
64667;SDS011;51077;42.716;23.344;2022-07-17T05:59:31;3.90;;;2.27;;
64667;SDS011;51077;42.716;23.344;2022-07-17T06:01:57;3.90;;;2.20;;
64667;SDS011;51077;42.716;23.344;2022-07-17T06:04:22;4.83;;;1.93;;
64667;SDS011;51077;42.716;23.344;2022-07-17T06:06:47;4.50;;;2.37;;
64667;SDS011;51077;42.716;23.344;2022-07-17T06:09:13;4.93;;;2.30;;
64667;SDS011;51077;42.716;23.344;2022-07-17T06:11:38;3.60;;;2.03;;
64667;SDS011;51077;42.716;23.344;2022-07-17T06:14:04;4.23;;;2.10;;
64667;SDS011;51077;42.716;23.344;2022-07-17T06:16:29;4.27;;;2.20;;
64667;SDS011;51077;42.716;23.344;2022-07-17T06:18:55;5.23;;;2.10;;
64667;SDS011;51077;42.716;23.344;2022-07-17T06:21:20;4.30;;;2.20;;
64667;SDS011;51077;42.716;23.344;2022-07-17T06:23:46;4.63;;;1.97;;
64667;SDS011;51077;42.716;23.344;2022-07-17T06:26:11;5.47;;;2.20;;
64667;SDS011;51077;42.716;23.344;2022-07-17T06:28:37;3.00;;;1.80;;
64667;SDS011;51077;42.716;23.344;2022-07-17T06:31:02;3.73;;;2.20;;
64667;SDS011;51077;42.716;23.344;2022-07-17T06:33:28;2.83;;;1.87;;
64667;SDS011;51077;42.716;23.344;2022-07-17T06:35:53;6.40;;;2.60;;
64667;SDS011;51077;42.716;23.344;2022-07-17T06:38:19;6.80;;;2.23;;
64667;SDS011;51077;42.716;23.344;2022-07-17T06:40:44;5.50;;;2.27;;
64667;SDS011;51077;42.716;23.344;2022-07-17T06:43:09;5.40;;;2.30;;
64667;SDS011;51077;42.716;23.344;2022-07-17T06:45:35;6.07;;;2.13;;
64667;SDS011;51077;42.716;23.344;2022-07-17T06:48:01;9.47;;;2.90;;
64667;SDS011;51077;42.716;23.344;2022-07-17T06:50:26;7.73;;;1.93;;
64667;SDS011;51077;42.716;23.344;2022-07-17T06:52:52;4.50;;;2.30;;
64667;SDS011;51077;42.716;23.344;2022-07-17T06:55:17;4.87;;;1.93;;
64667;SDS011;51077;42.716;23.344;2022-07-17T06:57:42;6.77;;;2.03;;
64667;SDS011;51077;42.716;23.344;2022-07-17T07:00:08;8.43;;;2.13;;
64667;SDS011;51077;42.716;23.344;2022-07-17T07:02:34;3.58;;;2.28;;
64667;SDS011;51077;42.716;23.344;2022-07-17T07:05:00;8.93;;;2.25;;
64667;SDS011;51077;42.716;23.344;2022-07-17T07:07:26;6.50;;;2.10;;
64667;SDS011;51077;42.716;23.344;2022-07-17T07:09:51;3.73;;;2.20;;
64667;SDS011;51077;42.716;23.344;2022-07-17T07:12:17;6.77;;;2.63;;
64667;SDS011;51077;42.716;23.344;2022-07-17T07:14:42;4.20;;;2.20;;
64667;SDS011;51077;42.716;23.344;2022-07-17T07:17:07;5.77;;;2.23;;
64667;SDS011;51077;42.716;23.344;2022-07-17T07:19:33;4.60;;;2.27;;
64667;SDS011;51077;42.716;23.344;2022-07-17T07:21:58;4.10;;;2.13;;
64667;SDS011;51077;42.716;23.344;2022-07-17T07:24:24;3.13;;;1.80;;
64667;SDS011;51077;42.716;23.344;2022-07-17T07:26:49;4.97;;;2.17;;
64667;SDS011;51077;42.716;23.344;2022-07-17T07:29:14;6.67;;;2.00;;
64667;SDS011;51077;42.716;23.344;2022-07-17T07:31:40;4.27;;;1.97;;
64667;SDS011;51077;42.716;23.344;2022-07-17T07:34:05;6.10;;;2.10;;
64667;SDS011;51077;42.716;23.344;2022-07-17T07:36:31;6.37;;;2.33;;
64667;SDS011;51077;42.716;23.344;2022-07-17T07:38:56;4.47;;;1.90;;
64667;SDS011;51077;42.716;23.344;2022-07-17T07:41:22;4.37;;;1.93;;
64667;SDS011;51077;42.716;23.344;2022-07-17T07:43:47;3.30;;;1.77;;
64667;SDS011;51077;42.716;23.344;2022-07-17T07:46:12;3.53;;;2.07;;
64667;SDS011;51077;42.716;23.344;2022-07-17T07:48:38;4.10;;;1.77;;
64667;SDS011;51077;42.716;23.344;2022-07-17T07:51:03;9.10;;;2.30;;
64667;SDS011;51077;42.716;23.344;2022-07-17T07:53:29;6.77;;;2.40;;
64667;SDS011;51077;42.716;23.344;2022-07-17T07:55:54;7.20;;;2.37;;
64667;SDS011;51077;42.716;23.344;2022-07-17T07:58:20;5.73;;;2.80;;
64667;SDS011;51077;42.716;23.344;2022-07-17T08:00:45;3.40;;;2.23;;
64667;SDS011;51077;42.716;23.344;2022-07-17T08:03:11;4.00;;;2.27;;
64667;SDS011;51077;42.716;23.344;2022-07-17T08:05:37;4.90;;;2.40;;
64667;SDS011;51077;42.716;23.344;2022-07-17T08:08:03;3.77;;;1.97;;
64667;SDS011;51077;42.716;23.344;2022-07-17T08:10:28;3.60;;;1.93;;
64667;SDS011;51077;42.716;23.344;2022-07-17T08:12:55;4.90;;;2.20;;
64667;SDS011;51077;42.716;23.344;2022-07-17T08:15:21;2.93;;;1.93;;
64667;SDS011;51077;42.716;23.344;2022-07-17T08:17:49;4.40;;;1.85;;
64667;SDS011;51077;42.716;23.344;2022-07-17T08:20:18;4.13;;;2.33;;
64667;SDS011;51077;42.716;23.344;2022-07-17T08:22:45;6.15;;;2.13;;
64667;SDS011;51077;42.716;23.344;2022-07-17T08:25:11;4.60;;;1.90;;
64667;SDS011;51077;42.716;23.344;2022-07-17T08:27:37;4.20;;;2.10;;
64667;SDS011;51077;42.716;23.344;2022-07-17T08:30:05;3.23;;;1.90;;
64667;SDS011;51077;42.716;23.344;2022-07-17T08:32:31;5.30;;;2.07;;
64667;SDS011;51077;42.716;23.344;2022-07-17T08:34:57;5.43;;;2.43;;
64667;SDS011;51077;42.716;23.344;2022-07-17T08:37:22;3.77;;;1.83;;
64667;SDS011;51077;42.716;23.344;2022-07-17T08:39:49;3.90;;;1.80;;
64667;SDS011;51077;42.716;23.344;2022-07-17T08:42:14;4.97;;;1.97;;
64667;SDS011;51077;42.716;23.344;2022-07-17T08:44:44;4.77;;;1.80;;
64667;SDS011;51077;42.716;23.344;2022-07-17T08:47:10;3.40;;;2.13;;
64667;SDS011;51077;42.716;23.344;2022-07-17T08:49:37;2.80;;;1.60;;
64667;SDS011;51077;42.716;23.344;2022-07-17T08:52:08;3.70;;;1.80;;
64667;SDS011;51077;42.716;23.344;2022-07-17T08:54:35;5.33;;;1.70;;
64667;SDS011;51077;42.716;23.344;2022-07-17T08:57:01;3.90;;;1.90;;
64667;SDS011;51077;42.716;23.344;2022-07-17T08:59:28;4.77;;;1.90;;
64667;SDS011;51077;42.716;23.344;2022-07-17T09:01:56;3.00;;;1.70;;
64667;SDS011;51077;42.716;23.344;2022-07-17T09:04:23;2.63;;;1.57;;
64667;SDS011;51077;42.716;23.344;2022-07-17T09:06:59;4.60;;;1.83;;
64667;SDS011;51077;42.716;23.344;2022-07-17T09:09:26;4.37;;;2.10;;
64667;SDS011;51077;42.716;23.344;2022-07-17T09:11:53;3.87;;;1.80;;
64667;SDS011;51077;42.716;23.344;2022-07-17T09:14:20;4.03;;;1.80;;
64667;SDS011;51077;42.716;23.344;2022-07-17T09:16:47;3.10;;;1.90;;
64667;SDS011;51077;42.716;23.344;2022-07-17T09:19:22;3.67;;;1.70;;
64667;SDS011;51077;42.716;23.344;2022-07-17T09:25:04;3.70;;;1.70;;
64667;SDS011;51077;42.716;23.344;2022-07-17T09:29:52;3.90;;;1.60;;
64667;SDS011;51077;42.716;23.344;2022-07-17T09:32:20;4.47;;;1.60;;
64667;SDS011;51077;42.716;23.344;2022-07-17T09:34:48;2.70;;;1.50;;
64667;SDS011;51077;42.716;23.344;2022-07-17T09:37:18;4.30;;;1.80;;
64667;SDS011;51077;42.716;23.344;2022-07-17T09:39:46;4.07;;;2.10;;
64667;SDS011;51077;42.716;23.344;2022-07-17T09:45:09;2.73;;;1.80;;
64667;SDS011;51077;42.716;23.344;2022-07-17T09:47:37;2.73;;;1.63;;
64667;SDS011;51077;42.716;23.344;2022-07-17T09:50:04;4.33;;;1.60;;
64667;SDS011;51077;42.716;23.344;2022-07-17T09:52:32;2.50;;;1.70;;
64667;SDS011;51077;42.716;23.344;2022-07-17T09:55:00;4.27;;;1.50;;
64667;SDS011;51077;42.716;23.344;2022-07-17T09:57:27;3.37;;;1.80;;
64667;SDS011;51077;42.716;23.344;2022-07-17T09:59:55;6.23;;;1.93;;
64667;SDS011;51077;42.716;23.344;2022-07-17T10:02:23;4.20;;;2.07;;
64667;SDS011;51077;42.716;23.344;2022-07-17T10:04:50;4.07;;;1.80;;
64667;SDS011;51077;42.716;23.344;2022-07-17T10:07:17;5.43;;;1.90;;
64667;SDS011;51077;42.716;23.344;2022-07-17T10:09:44;4.87;;;1.80;;
64667;SDS011;51077;42.716;23.344;2022-07-17T10:12:10;5.03;;;2.00;;
64667;SDS011;51077;42.716;23.344;2022-07-17T10:14:36;3.47;;;1.67;;
64667;SDS011;51077;42.716;23.344;2022-07-17T10:19:47;4.40;;;2.03;;
64667;SDS011;51077;42.716;23.344;2022-07-17T10:22:19;4.63;;;1.80;;
64667;SDS011;51077;42.716;23.344;2022-07-17T10:24:46;4.67;;;1.80;;
64667;SDS011;51077;42.716;23.344;2022-07-17T10:27:24;3.50;;;1.83;;
64667;SDS011;51077;42.716;23.344;2022-07-17T10:30:04;3.67;;;1.60;;
64667;SDS011;51077;42.716;23.344;2022-07-17T10:32:30;3.60;;;1.30;;
64667;SDS011;51077;42.716;23.344;2022-07-17T10:35:00;3.80;;;1.90;;
64667;SDS011;51077;42.716;23.344;2022-07-17T10:37:31;4.07;;;1.60;;
64667;SDS011;51077;42.716;23.344;2022-07-17T10:42:46;3.23;;;1.50;;
64667;SDS011;51077;42.716;23.344;2022-07-17T10:50:33;3.33;;;1.63;;
64667;SDS011;51077;42.716;23.344;2022-07-17T10:53:03;4.07;;;1.43;;
64667;SDS011;51077;42.716;23.344;2022-07-17T10:55:32;4.53;;;1.60;;
64667;SDS011;51077;42.716;23.344;2022-07-17T10:57:59;3.90;;;1.63;;
64667;SDS011;51077;42.716;23.344;2022-07-17T11:00:25;3.53;;;1.40;;
64667;SDS011;51077;42.716;23.344;2022-07-17T11:02:50;2.37;;;1.57;;
64667;SDS011;51077;42.716;23.344;2022-07-17T11:05:16;3.03;;;1.40;;
64667;SDS011;51077;42.716;23.344;2022-07-17T11:07:49;3.03;;;1.40;;
64667;SDS011;51077;42.716;23.344;2022-07-17T11:10:15;6.37;;;1.70;;
64667;SDS011;51077;42.716;23.344;2022-07-17T11:12:41;3.13;;;1.40;;
64667;SDS011;51077;42.716;23.344;2022-07-17T11:15:07;3.63;;;1.50;;
64667;SDS011;51077;42.716;23.344;2022-07-17T11:17:32;5.00;;;1.90;;
64667;SDS011;51077;42.716;23.344;2022-07-17T11:19:59;2.37;;;1.50;;
64667;SDS011;51077;42.716;23.344;2022-07-17T11:22:25;2.70;;;1.70;;
64667;SDS011;51077;42.716;23.344;2022-07-17T11:24:50;3.13;;;1.67;;
64667;SDS011;51077;42.716;23.344;2022-07-17T11:27:23;2.40;;;1.30;;
64667;SDS011;51077;42.716;23.344;2022-07-17T11:29:48;4.63;;;1.50;;
64667;SDS011;51077;42.716;23.344;2022-07-17T11:32:16;4.77;;;1.57;;
64667;SDS011;51077;42.716;23.344;2022-07-17T11:34:42;3.40;;;1.43;;
64667;SDS011;51077;42.716;23.344;2022-07-17T11:37:08;3.93;;;1.60;;
64667;SDS011;51077;42.716;23.344;2022-07-17T11:39:41;4.07;;;1.60;;
64667;SDS011;51077;42.716;23.344;2022-07-17T11:42:11;2.70;;;1.63;;
64667;SDS011;51077;42.716;23.344;2022-07-17T11:44:39;3.73;;;1.80;;
64667;SDS011;51077;42.716;23.344;2022-07-17T11:47:05;3.00;;;1.70;;
64667;SDS011;51077;42.716;23.344;2022-07-17T11:49:32;3.57;;;1.90;;
64667;SDS011;51077;42.716;23.344;2022-07-17T11:52:13;2.53;;;1.30;;
64667;SDS011;51077;42.716;23.344;2022-07-17T11:54:48;3.87;;;1.40;;
64667;SDS011;51077;42.716;23.344;2022-07-17T11:57:16;3.10;;;1.67;;
64667;SDS011;51077;42.716;23.344;2022-07-17T11:59:43;3.90;;;1.70;;
64667;SDS011;51077;42.716;23.344;2022-07-17T12:02:11;4.93;;;1.73;;
64667;SDS011;51077;42.716;23.344;2022-07-17T12:04:54;4.53;;;1.90;;
64667;SDS011;51077;42.716;23.344;2022-07-17T12:07:22;3.53;;;1.73;;
64667;SDS011;51077;42.716;23.344;2022-07-17T12:09:50;2.63;;;1.37;;
64667;SDS011;51077;42.716;23.344;2022-07-17T12:12:22;2.57;;;1.53;;
64667;SDS011;51077;42.716;23.344;2022-07-17T12:14:51;2.93;;;1.60;;
64667;SDS011;51077;42.716;23.344;2022-07-17T12:17:22;3.10;;;1.60;;
64667;SDS011;51077;42.716;23.344;2022-07-17T12:19:48;2.93;;;1.60;;
64667;SDS011;51077;42.716;23.344;2022-07-17T12:22:15;2.50;;;1.47;;
64667;SDS011;51077;42.716;23.344;2022-07-17T12:24:42;3.97;;;1.67;;
64667;SDS011;51077;42.716;23.344;2022-07-17T12:27:10;3.23;;;1.87;;
64667;SDS011;51077;42.716;23.344;2022-07-17T12:29:37;2.20;;;1.50;;
64667;SDS011;51077;42.716;23.344;2022-07-17T12:32:08;3.63;;;1.60;;
64667;SDS011;51077;42.716;23.344;2022-07-17T12:34:34;5.03;;;2.33;;
64667;SDS011;51077;42.716;23.344;2022-07-17T12:37:01;2.73;;;1.73;;
64667;SDS011;51077;42.716;23.344;2022-07-17T12:39:27;3.30;;;2.00;;
64667;SDS011;51077;42.716;23.344;2022-07-17T12:41:53;3.57;;;2.10;;
64667;SDS011;51077;42.716;23.344;2022-07-17T12:44:18;3.43;;;1.93;;
64667;SDS011;51077;42.716;23.344;2022-07-17T12:46:44;2.83;;;1.67;;
64667;SDS011;51077;42.716;23.344;2022-07-17T12:49:09;3.43;;;2.10;;
64667;SDS011;51077;42.716;23.344;2022-07-17T12:51:34;3.60;;;2.13;;
64667;SDS011;51077;42.716;23.344;2022-07-17T12:54:00;3.50;;;1.97;;
64667;SDS011;51077;42.716;23.344;2022-07-17T12:56:25;3.10;;;1.77;;
64667;SDS011;51077;42.716;23.344;2022-07-17T12:58:52;2.93;;;1.90;;
64667;SDS011;51077;42.716;23.344;2022-07-17T13:01:18;5.27;;;2.03;;
64667;SDS011;51077;42.716;23.344;2022-07-17T13:03:43;3.00;;;1.77;;
64667;SDS011;51077;42.716;23.344;2022-07-17T13:06:09;4.30;;;1.70;;
64667;SDS011;51077;42.716;23.344;2022-07-17T13:08:35;8.67;;;2.13;;
64667;SDS011;51077;42.716;23.344;2022-07-17T13:11:01;2.63;;;1.80;;
64667;SDS011;51077;42.716;23.344;2022-07-17T13:13:28;3.57;;;1.73;;
64667;SDS011;51077;42.716;23.344;2022-07-17T13:15:53;3.97;;;1.70;;
64667;SDS011;51077;42.716;23.344;2022-07-17T13:18:19;3.43;;;1.90;;
64667;SDS011;51077;42.716;23.344;2022-07-17T13:20:45;4.10;;;1.73;;
64667;SDS011;51077;42.716;23.344;2022-07-17T13:23:11;3.60;;;1.57;;
64667;SDS011;51077;42.716;23.344;2022-07-17T13:25:37;3.53;;;1.77;;
64667;SDS011;51077;42.716;23.344;2022-07-17T13:28:03;4.20;;;2.00;;
64667;SDS011;51077;42.716;23.344;2022-07-17T13:30:28;3.87;;;2.20;;
64667;SDS011;51077;42.716;23.344;2022-07-17T13:32:54;3.30;;;1.97;;
64667;SDS011;51077;42.716;23.344;2022-07-17T13:35:20;5.07;;;2.07;;
64667;SDS011;51077;42.716;23.344;2022-07-17T13:37:45;5.40;;;1.80;;
64667;SDS011;51077;42.716;23.344;2022-07-17T13:40:11;3.40;;;1.80;;
64667;SDS011;51077;42.716;23.344;2022-07-17T13:42:37;5.37;;;2.00;;
64667;SDS011;51077;42.716;23.344;2022-07-17T13:45:03;3.57;;;1.90;;
64667;SDS011;51077;42.716;23.344;2022-07-17T13:47:28;3.03;;;1.73;;
64667;SDS011;51077;42.716;23.344;2022-07-17T13:49:54;3.27;;;1.60;;
64667;SDS011;51077;42.716;23.344;2022-07-17T13:52:20;3.30;;;2.20;;
64667;SDS011;51077;42.716;23.344;2022-07-17T13:54:46;3.47;;;2.00;;
64667;SDS011;51077;42.716;23.344;2022-07-17T13:57:11;4.60;;;2.17;;
64667;SDS011;51077;42.716;23.344;2022-07-17T13:59:37;3.20;;;1.80;;
64667;SDS011;51077;42.716;23.344;2022-07-17T14:02:02;2.70;;;1.97;;
64667;SDS011;51077;42.716;23.344;2022-07-17T14:04:28;3.13;;;2.10;;
64667;SDS011;51077;42.716;23.344;2022-07-17T14:06:53;4.40;;;1.70;;
64667;SDS011;51077;42.716;23.344;2022-07-17T14:09:19;4.57;;;1.80;;
64667;SDS011;51077;42.716;23.344;2022-07-17T14:11:44;4.57;;;1.73;;
64667;SDS011;51077;42.716;23.344;2022-07-17T14:14:09;2.80;;;1.80;;
64667;SDS011;51077;42.716;23.344;2022-07-17T14:16:35;3.13;;;1.60;;
64667;SDS011;51077;42.716;23.344;2022-07-17T14:19:01;3.90;;;1.80;;
64667;SDS011;51077;42.716;23.344;2022-07-17T14:23:56;3.30;;;1.70;;
64667;SDS011;51077;42.716;23.344;2022-07-17T14:26:23;3.93;;;1.80;;
64667;SDS011;51077;42.716;23.344;2022-07-17T14:28:49;4.97;;;1.83;;
64667;SDS011;51077;42.716;23.344;2022-07-17T14:31:14;3.50;;;1.80;;
64667;SDS011;51077;42.716;23.344;2022-07-17T14:33:41;2.90;;;1.60;;
64667;SDS011;51077;42.716;23.344;2022-07-17T14:36:07;3.03;;;1.70;;
64667;SDS011;51077;42.716;23.344;2022-07-17T14:38:33;2.93;;;2.00;;
64667;SDS011;51077;42.716;23.344;2022-07-17T14:40:58;3.23;;;2.10;;
64667;SDS011;51077;42.716;23.344;2022-07-17T14:43:24;4.60;;;1.93;;
64667;SDS011;51077;42.716;23.344;2022-07-17T14:45:49;4.47;;;1.90;;
64667;SDS011;51077;42.716;23.344;2022-07-17T14:48:15;4.03;;;2.27;;
64667;SDS011;51077;42.716;23.344;2022-07-17T14:50:40;4.97;;;1.90;;